sensor_id;sensor_type;location;lat;lon;timestamp;P1;durP1;ratioP1;P2;durP2;ratioP2
56736;SDS011;42618;51.226;4.910;2022-11-20T00:01:18;17.15;;;8.35;;
56736;SDS011;42618;51.226;4.910;2022-11-20T00:03:47;16.10;;;8.57;;
56736;SDS011;42618;51.226;4.910;2022-11-20T00:06:15;18.17;;;8.77;;
56736;SDS011;42618;51.226;4.910;2022-11-20T00:08:44;19.52;;;8.30;;
56736;SDS011;42618;51.226;4.910;2022-11-20T00:13:42;21.15;;;8.80;;
56736;SDS011;42618;51.226;4.910;2022-11-20T00:16:10;16.42;;;8.82;;
56736;SDS011;42618;51.226;4.910;2022-11-20T00:18:38;16.15;;;8.55;;
56736;SDS011;42618;51.226;4.910;2022-11-20T00:21:12;16.73;;;7.95;;
56736;SDS011;42618;51.226;4.910;2022-11-20T00:23:39;14.90;;;8.18;;
56736;SDS011;42618;51.226;4.910;2022-11-20T00:26:07;16.90;;;8.38;;
56736;SDS011;42618;51.226;4.910;2022-11-20T00:28:35;14.35;;;7.78;;
56736;SDS011;42618;51.226;4.910;2022-11-20T00:31:09;15.90;;;7.50;;
56736;SDS011;42618;51.226;4.910;2022-11-20T00:33:40;15.25;;;8.18;;
56736;SDS011;42618;51.226;4.910;2022-11-20T00:36:12;14.95;;;8.07;;
56736;SDS011;42618;51.226;4.910;2022-11-20T00:38:41;14.43;;;8.13;;
56736;SDS011;42618;51.226;4.910;2022-11-20T00:41:09;13.40;;;7.95;;
56736;SDS011;42618;51.226;4.910;2022-11-20T00:43:36;12.88;;;7.43;;
56736;SDS011;42618;51.226;4.910;2022-11-20T00:46:05;13.43;;;7.47;;
56736;SDS011;42618;51.226;4.910;2022-11-20T00:48:33;13.82;;;8.02;;
56736;SDS011;42618;51.226;4.910;2022-11-20T00:51:01;13.32;;;6.88;;
56736;SDS011;42618;51.226;4.910;2022-11-20T00:53:28;12.45;;;7.70;;
56736;SDS011;42618;51.226;4.910;2022-11-20T00:55:55;15.82;;;8.23;;
56736;SDS011;42618;51.226;4.910;2022-11-20T00:58:24;14.02;;;7.85;;
56736;SDS011;42618;51.226;4.910;2022-11-20T01:03:18;13.02;;;7.20;;
56736;SDS011;42618;51.226;4.910;2022-11-20T01:05:52;14.25;;;7.25;;
56736;SDS011;42618;51.226;4.910;2022-11-20T01:08:18;13.57;;;6.95;;
56736;SDS011;42618;51.226;4.910;2022-11-20T01:10:45;14.02;;;7.25;;
56736;SDS011;42618;51.226;4.910;2022-11-20T01:13:12;12.82;;;7.30;;
56736;SDS011;42618;51.226;4.910;2022-11-20T01:16:01;14.18;;;8.02;;
56736;SDS011;42618;51.226;4.910;2022-11-20T01:18:30;15.10;;;7.82;;
56736;SDS011;42618;51.226;4.910;2022-11-20T01:21:13;14.02;;;7.28;;
56736;SDS011;42618;51.226;4.910;2022-11-20T01:23:42;14.60;;;7.68;;
56736;SDS011;42618;51.226;4.910;2022-11-20T01:28:38;14.15;;;7.05;;
56736;SDS011;42618;51.226;4.910;2022-11-20T01:33:41;16.05;;;7.15;;
56736;SDS011;42618;51.226;4.910;2022-11-20T01:36:08;13.68;;;7.85;;
56736;SDS011;42618;51.226;4.910;2022-11-20T01:41:03;13.18;;;7.35;;
56736;SDS011;42618;51.226;4.910;2022-11-20T01:43:30;14.25;;;8.45;;
56736;SDS011;42618;51.226;4.910;2022-11-20T01:46:17;15.87;;;7.50;;
56736;SDS011;42618;51.226;4.910;2022-11-20T01:48:49;14.68;;;7.00;;
56736;SDS011;42618;51.226;4.910;2022-11-20T01:51:41;13.57;;;7.30;;
56736;SDS011;42618;51.226;4.910;2022-11-20T01:54:09;15.85;;;7.22;;
56736;SDS011;42618;51.226;4.910;2022-11-20T01:56:40;14.88;;;7.25;;
56736;SDS011;42618;51.226;4.910;2022-11-20T01:59:10;13.50;;;7.32;;
56736;SDS011;42618;51.226;4.910;2022-11-20T02:01:40;14.90;;;7.63;;
56736;SDS011;42618;51.226;4.910;2022-11-20T02:04:07;14.95;;;8.13;;
56736;SDS011;42618;51.226;4.910;2022-11-20T02:06:36;14.73;;;7.93;;
56736;SDS011;42618;51.226;4.910;2022-11-20T02:09:08;13.80;;;7.40;;
56736;SDS011;42618;51.226;4.910;2022-11-20T02:11:35;14.23;;;7.63;;
56736;SDS011;42618;51.226;4.910;2022-11-20T02:14:02;16.27;;;7.65;;
56736;SDS011;42618;51.226;4.910;2022-11-20T02:16:30;16.27;;;8.40;;
56736;SDS011;42618;51.226;4.910;2022-11-20T02:19:00;14.10;;;7.45;;
56736;SDS011;42618;51.226;4.910;2022-11-20T02:21:33;18.35;;;8.07;;
56736;SDS011;42618;51.226;4.910;2022-11-20T02:24:14;15.75;;;7.80;;
56736;SDS011;42618;51.226;4.910;2022-11-20T02:32:29;14.52;;;7.65;;
56736;SDS011;42618;51.226;4.910;2022-11-20T02:34:57;14.95;;;7.75;;
56736;SDS011;42618;51.226;4.910;2022-11-20T02:37:32;17.42;;;8.40;;
56736;SDS011;42618;51.226;4.910;2022-11-20T02:40:02;13.30;;;7.95;;
56736;SDS011;42618;51.226;4.910;2022-11-20T02:42:29;15.40;;;8.35;;
56736;SDS011;42618;51.226;4.910;2022-11-20T02:44:55;15.30;;;7.25;;
56736;SDS011;42618;51.226;4.910;2022-11-20T02:47:22;13.75;;;7.65;;
56736;SDS011;42618;51.226;4.910;2022-11-20T02:49:49;12.45;;;8.20;;
56736;SDS011;42618;51.226;4.910;2022-11-20T02:52:15;17.33;;;8.57;;
56736;SDS011;42618;51.226;4.910;2022-11-20T02:54:42;14.65;;;8.02;;
56736;SDS011;42618;51.226;4.910;2022-11-20T02:57:08;16.67;;;8.13;;
56736;SDS011;42618;51.226;4.910;2022-11-20T02:59:35;14.02;;;7.63;;
56736;SDS011;42618;51.226;4.910;2022-11-20T03:02:01;15.18;;;8.18;;
56736;SDS011;42618;51.226;4.910;2022-11-20T03:04:28;17.03;;;8.60;;
56736;SDS011;42618;51.226;4.910;2022-11-20T03:06:55;16.33;;;9.20;;
56736;SDS011;42618;51.226;4.910;2022-11-20T03:09:22;19.25;;;8.73;;
56736;SDS011;42618;51.226;4.910;2022-11-20T03:11:49;15.13;;;8.27;;
56736;SDS011;42618;51.226;4.910;2022-11-20T03:14:15;15.27;;;8.55;;
56736;SDS011;42618;51.226;4.910;2022-11-20T03:16:42;14.73;;;7.97;;
56736;SDS011;42618;51.226;4.910;2022-11-20T03:19:09;15.30;;;8.85;;
56736;SDS011;42618;51.226;4.910;2022-11-20T03:21:36;15.68;;;8.27;;
56736;SDS011;42618;51.226;4.910;2022-11-20T03:24:02;15.77;;;7.43;;
56736;SDS011;42618;51.226;4.910;2022-11-20T03:26:29;14.83;;;7.67;;
56736;SDS011;42618;51.226;4.910;2022-11-20T03:28:57;14.68;;;8.13;;
56736;SDS011;42618;51.226;4.910;2022-11-20T03:31:27;14.75;;;8.00;;
56736;SDS011;42618;51.226;4.910;2022-11-20T03:33:56;16.52;;;8.32;;
56736;SDS011;42618;51.226;4.910;2022-11-20T03:36:24;13.63;;;8.05;;
56736;SDS011;42618;51.226;4.910;2022-11-20T03:38:52;13.00;;;7.97;;
56736;SDS011;42618;51.226;4.910;2022-11-20T03:41:20;14.75;;;8.48;;
56736;SDS011;42618;51.226;4.910;2022-11-20T03:43:54;15.38;;;8.10;;
56736;SDS011;42618;51.226;4.910;2022-11-20T03:46:23;15.48;;;8.18;;
56736;SDS011;42618;51.226;4.910;2022-11-20T03:48:50;16.00;;;8.00;;
56736;SDS011;42618;51.226;4.910;2022-11-20T03:51:26;15.23;;;8.20;;
56736;SDS011;42618;51.226;4.910;2022-11-20T03:53:56;22.52;;;8.93;;
56736;SDS011;42618;51.226;4.910;2022-11-20T03:56:25;15.05;;;7.97;;
56736;SDS011;42618;51.226;4.910;2022-11-20T03:58:53;14.60;;;7.75;;
56736;SDS011;42618;51.226;4.910;2022-11-20T04:01:22;15.18;;;8.15;;
56736;SDS011;42618;51.226;4.910;2022-11-20T04:03:54;24.13;;;8.73;;
56736;SDS011;42618;51.226;4.910;2022-11-20T04:06:24;15.98;;;8.20;;
56736;SDS011;42618;51.226;4.910;2022-11-20T04:08:56;13.65;;;8.00;;
56736;SDS011;42618;51.226;4.910;2022-11-20T04:11:24;14.60;;;8.40;;
56736;SDS011;42618;51.226;4.910;2022-11-20T04:13:54;15.52;;;8.23;;
56736;SDS011;42618;51.226;4.910;2022-11-20T04:16:26;14.52;;;8.00;;
56736;SDS011;42618;51.226;4.910;2022-11-20T04:18:56;14.50;;;7.82;;
56736;SDS011;42618;51.226;4.910;2022-11-20T04:21:25;14.63;;;8.45;;
56736;SDS011;42618;51.226;4.910;2022-11-20T04:26:20;14.27;;;7.60;;
56736;SDS011;42618;51.226;4.910;2022-11-20T04:28:49;15.15;;;8.05;;
56736;SDS011;42618;51.226;4.910;2022-11-20T04:31:22;16.05;;;8.07;;
56736;SDS011;42618;51.226;4.910;2022-11-20T04:33:51;19.95;;;8.05;;
56736;SDS011;42618;51.226;4.910;2022-11-20T04:36:24;16.73;;;8.10;;
56736;SDS011;42618;51.226;4.910;2022-11-20T04:38:56;15.52;;;8.82;;
56736;SDS011;42618;51.226;4.910;2022-11-20T04:41:28;15.48;;;8.30;;
56736;SDS011;42618;51.226;4.910;2022-11-20T04:43:57;18.42;;;8.85;;
56736;SDS011;42618;51.226;4.910;2022-11-20T04:46:29;15.68;;;8.20;;
56736;SDS011;42618;51.226;4.910;2022-11-20T04:49:00;17.27;;;8.70;;
56736;SDS011;42618;51.226;4.910;2022-11-20T04:51:27;16.33;;;8.73;;
56736;SDS011;42618;51.226;4.910;2022-11-20T04:53:54;20.50;;;9.23;;
56736;SDS011;42618;51.226;4.910;2022-11-20T04:56:21;17.02;;;8.63;;
56736;SDS011;42618;51.226;4.910;2022-11-20T04:58:48;16.77;;;8.57;;
56736;SDS011;42618;51.226;4.910;2022-11-20T05:01:15;17.02;;;9.48;;
56736;SDS011;42618;51.226;4.910;2022-11-20T05:03:43;17.40;;;8.77;;
56736;SDS011;42618;51.226;4.910;2022-11-20T05:06:11;16.38;;;8.38;;
56736;SDS011;42618;51.226;4.910;2022-11-20T05:08:40;16.02;;;8.60;;
56736;SDS011;42618;51.226;4.910;2022-11-20T05:11:10;18.80;;;8.90;;
56736;SDS011;42618;51.226;4.910;2022-11-20T05:13:39;15.00;;;8.68;;
56736;SDS011;42618;51.226;4.910;2022-11-20T05:16:09;15.65;;;8.35;;
56736;SDS011;42618;51.226;4.910;2022-11-20T05:18:39;15.10;;;8.48;;
56736;SDS011;42618;51.226;4.910;2022-11-20T05:26:01;19.10;;;9.82;;
56736;SDS011;42618;51.226;4.910;2022-11-20T05:28:28;19.20;;;9.88;;
56736;SDS011;42618;51.226;4.910;2022-11-20T05:30:55;20.23;;;10.35;;
56736;SDS011;42618;51.226;4.910;2022-11-20T05:33:22;18.30;;;9.23;;
56736;SDS011;42618;51.226;4.910;2022-11-20T05:35:49;19.05;;;10.15;;
56736;SDS011;42618;51.226;4.910;2022-11-20T05:38:16;15.02;;;8.70;;
56736;SDS011;42618;51.226;4.910;2022-11-20T05:40:42;16.70;;;8.68;;
56736;SDS011;42618;51.226;4.910;2022-11-20T05:43:09;15.73;;;8.73;;
56736;SDS011;42618;51.226;4.910;2022-11-20T05:45:36;16.23;;;8.80;;
56736;SDS011;42618;51.226;4.910;2022-11-20T05:48:02;20.40;;;8.73;;
56736;SDS011;42618;51.226;4.910;2022-11-20T05:50:29;18.13;;;9.30;;
56736;SDS011;42618;51.226;4.910;2022-11-20T05:52:59;18.95;;;9.15;;
56736;SDS011;42618;51.226;4.910;2022-11-20T05:55:26;17.25;;;8.90;;
56736;SDS011;42618;51.226;4.910;2022-11-20T05:57:53;15.70;;;8.05;;
56736;SDS011;42618;51.226;4.910;2022-11-20T06:02:48;18.77;;;9.82;;
56736;SDS011;42618;51.226;4.910;2022-11-20T06:05:15;22.02;;;10.80;;
56736;SDS011;42618;51.226;4.910;2022-11-20T06:07:42;19.67;;;9.85;;
56736;SDS011;42618;51.226;4.910;2022-11-20T06:10:08;22.38;;;10.50;;
56736;SDS011;42618;51.226;4.910;2022-11-20T06:12:35;23.37;;;11.43;;
56736;SDS011;42618;51.226;4.910;2022-11-20T06:15:02;24.15;;;10.68;;
56736;SDS011;42618;51.226;4.910;2022-11-20T06:17:30;25.52;;;10.77;;
56736;SDS011;42618;51.226;4.910;2022-11-20T06:19:57;28.50;;;11.73;;
56736;SDS011;42618;51.226;4.910;2022-11-20T06:22:23;24.58;;;11.82;;
56736;SDS011;42618;51.226;4.910;2022-11-20T06:24:50;28.42;;;11.82;;
56736;SDS011;42618;51.226;4.910;2022-11-20T06:27:17;26.75;;;12.48;;
56736;SDS011;42618;51.226;4.910;2022-11-20T06:29:43;24.58;;;12.18;;
56736;SDS011;42618;51.226;4.910;2022-11-20T06:32:10;26.67;;;12.20;;
56736;SDS011;42618;51.226;4.910;2022-11-20T06:34:37;28.35;;;13.02;;
56736;SDS011;42618;51.226;4.910;2022-11-20T06:37:03;27.85;;;13.27;;
56736;SDS011;42618;51.226;4.910;2022-11-20T06:39:30;27.25;;;12.68;;
56736;SDS011;42618;51.226;4.910;2022-11-20T06:41:57;22.88;;;11.55;;
56736;SDS011;42618;51.226;4.910;2022-11-20T06:44:24;29.55;;;12.65;;
56736;SDS011;42618;51.226;4.910;2022-11-20T06:46:51;32.38;;;13.45;;
56736;SDS011;42618;51.226;4.910;2022-11-20T06:49:18;32.13;;;13.85;;
56736;SDS011;42618;51.226;4.910;2022-11-20T06:51:45;27.77;;;13.05;;
56736;SDS011;42618;51.226;4.910;2022-11-20T06:54:12;32.95;;;13.85;;
56736;SDS011;42618;51.226;4.910;2022-11-20T06:56:38;30.40;;;12.43;;
56736;SDS011;42618;51.226;4.910;2022-11-20T06:59:05;31.52;;;13.70;;
56736;SDS011;42618;51.226;4.910;2022-11-20T07:01:33;31.05;;;12.27;;
56736;SDS011;42618;51.226;4.910;2022-11-20T07:04:01;30.30;;;13.10;;
56736;SDS011;42618;51.226;4.910;2022-11-20T07:06:29;33.08;;;13.63;;
56736;SDS011;42618;51.226;4.910;2022-11-20T07:08:56;32.00;;;14.50;;
56736;SDS011;42618;51.226;4.910;2022-11-20T07:11:23;28.83;;;13.13;;
56736;SDS011;42618;51.226;4.910;2022-11-20T07:13:50;28.67;;;13.20;;
56736;SDS011;42618;51.226;4.910;2022-11-20T07:16:16;28.95;;;13.50;;
56736;SDS011;42618;51.226;4.910;2022-11-20T07:18:43;29.15;;;13.32;;
56736;SDS011;42618;51.226;4.910;2022-11-20T07:21:15;30.88;;;14.10;;
56736;SDS011;42618;51.226;4.910;2022-11-20T07:23:42;31.80;;;14.48;;
56736;SDS011;42618;51.226;4.910;2022-11-20T07:26:10;34.47;;;14.48;;
56736;SDS011;42618;51.226;4.910;2022-11-20T07:28:37;30.98;;;13.80;;
56736;SDS011;42618;51.226;4.910;2022-11-20T07:31:04;36.63;;;15.15;;
56736;SDS011;42618;51.226;4.910;2022-11-20T07:33:32;34.88;;;14.13;;
56736;SDS011;42618;51.226;4.910;2022-11-20T07:35:59;40.50;;;15.85;;
56736;SDS011;42618;51.226;4.910;2022-11-20T07:38:26;37.15;;;15.70;;
56736;SDS011;42618;51.226;4.910;2022-11-20T07:40:54;34.53;;;15.35;;
56736;SDS011;42618;51.226;4.910;2022-11-20T07:43:22;38.28;;;16.85;;
56736;SDS011;42618;51.226;4.910;2022-11-20T07:45:48;37.63;;;16.40;;
56736;SDS011;42618;51.226;4.910;2022-11-20T07:48:15;83.70;;;38.55;;
56736;SDS011;42618;51.226;4.910;2022-11-20T07:50:42;31.45;;;14.27;;
56736;SDS011;42618;51.226;4.910;2022-11-20T07:53:08;37.92;;;15.43;;
56736;SDS011;42618;51.226;4.910;2022-11-20T07:55:35;36.42;;;15.57;;
56736;SDS011;42618;51.226;4.910;2022-11-20T07:58:02;35.85;;;15.85;;
56736;SDS011;42618;51.226;4.910;2022-11-20T08:00:29;40.28;;;15.48;;
56736;SDS011;42618;51.226;4.910;2022-11-20T08:02:56;31.42;;;14.57;;
56736;SDS011;42618;51.226;4.910;2022-11-20T08:05:22;37.55;;;15.45;;
56736;SDS011;42618;51.226;4.910;2022-11-20T08:07:49;40.75;;;15.85;;
56736;SDS011;42618;51.226;4.910;2022-11-20T08:10:16;39.05;;;15.80;;
56736;SDS011;42618;51.226;4.910;2022-11-20T08:12:43;35.83;;;14.77;;
56736;SDS011;42618;51.226;4.910;2022-11-20T08:15:33;33.65;;;15.73;;
56736;SDS011;42618;51.226;4.910;2022-11-20T08:18:05;32.00;;;14.85;;
56736;SDS011;42618;51.226;4.910;2022-11-20T08:21:01;38.35;;;15.75;;
56736;SDS011;42618;51.226;4.910;2022-11-20T08:23:30;40.63;;;16.58;;
56736;SDS011;42618;51.226;4.910;2022-11-20T08:25:57;35.58;;;16.20;;
56736;SDS011;42618;51.226;4.910;2022-11-20T08:28:23;33.80;;;15.43;;
56736;SDS011;42618;51.226;4.910;2022-11-20T08:30:50;51.80;;;23.05;;
56736;SDS011;42618;51.226;4.910;2022-11-20T08:33:17;43.95;;;19.60;;
56736;SDS011;42618;51.226;4.910;2022-11-20T08:35:44;38.92;;;16.52;;
56736;SDS011;42618;51.226;4.910;2022-11-20T08:38:11;34.67;;;16.03;;
56736;SDS011;42618;51.226;4.910;2022-11-20T08:40:38;35.25;;;16.40;;
56736;SDS011;42618;51.226;4.910;2022-11-20T08:43:05;36.72;;;16.35;;
56736;SDS011;42618;51.226;4.910;2022-11-20T08:45:31;33.85;;;15.43;;
56736;SDS011;42618;51.226;4.910;2022-11-20T08:48:00;33.97;;;16.08;;
56736;SDS011;42618;51.226;4.910;2022-11-20T08:50:29;35.42;;;16.20;;
56736;SDS011;42618;51.226;4.910;2022-11-20T08:53:05;38.03;;;16.15;;
56736;SDS011;42618;51.226;4.910;2022-11-20T08:55:32;41.33;;;16.50;;
56736;SDS011;42618;51.226;4.910;2022-11-20T08:58:05;41.70;;;17.48;;
56736;SDS011;42618;51.226;4.910;2022-11-20T09:00:33;45.47;;;19.35;;
56736;SDS011;42618;51.226;4.910;2022-11-20T09:07:57;42.53;;;15.73;;
56736;SDS011;42618;51.226;4.910;2022-11-20T09:10:28;38.92;;;15.82;;
56736;SDS011;42618;51.226;4.910;2022-11-20T09:12:55;36.03;;;15.15;;
56736;SDS011;42618;51.226;4.910;2022-11-20T09:15:22;38.30;;;15.63;;
56736;SDS011;42618;51.226;4.910;2022-11-20T09:18:00;36.38;;;15.90;;
56736;SDS011;42618;51.226;4.910;2022-11-20T09:20:30;37.95;;;15.63;;
56736;SDS011;42618;51.226;4.910;2022-11-20T09:22:57;35.30;;;16.97;;
56736;SDS011;42618;51.226;4.910;2022-11-20T09:25:24;38.65;;;16.77;;
56736;SDS011;42618;51.226;4.910;2022-11-20T09:27:57;40.42;;;16.27;;
56736;SDS011;42618;51.226;4.910;2022-11-20T09:30:25;42.63;;;16.55;;
56736;SDS011;42618;51.226;4.910;2022-11-20T09:35:19;40.30;;;17.13;;
56736;SDS011;42618;51.226;4.910;2022-11-20T09:37:47;41.22;;;16.63;;
56736;SDS011;42618;51.226;4.910;2022-11-20T09:40:19;39.78;;;15.75;;
56736;SDS011;42618;51.226;4.910;2022-11-20T09:45:23;42.25;;;16.30;;
56736;SDS011;42618;51.226;4.910;2022-11-20T09:48:10;43.05;;;15.88;;
56736;SDS011;42618;51.226;4.910;2022-11-20T09:53:46;43.00;;;16.50;;
56736;SDS011;42618;51.226;4.910;2022-11-20T09:56:33;43.88;;;16.23;;
56736;SDS011;42618;51.226;4.910;2022-11-20T09:59:04;41.53;;;16.40;;
56736;SDS011;42618;51.226;4.910;2022-11-20T10:01:35;41.50;;;16.13;;
56736;SDS011;42618;51.226;4.910;2022-11-20T10:04:06;43.90;;;17.27;;
56736;SDS011;42618;51.226;4.910;2022-11-20T10:10:00;37.75;;;15.73;;
56736;SDS011;42618;51.226;4.910;2022-11-20T10:12:39;43.05;;;15.65;;
56736;SDS011;42618;51.226;4.910;2022-11-20T10:18:20;41.72;;;14.77;;
56736;SDS011;42618;51.226;4.910;2022-11-20T10:23:30;38.55;;;15.27;;
56736;SDS011;42618;51.226;4.910;2022-11-20T10:29:16;45.28;;;15.70;;
56736;SDS011;42618;51.226;4.910;2022-11-20T10:31:59;42.42;;;16.33;;
56736;SDS011;42618;51.226;4.910;2022-11-20T10:37:12;45.42;;;16.05;;
56736;SDS011;42618;51.226;4.910;2022-11-20T10:39:47;52.20;;;20.95;;
56736;SDS011;42618;51.226;4.910;2022-11-20T10:42:31;49.20;;;18.48;;
56736;SDS011;42618;51.226;4.910;2022-11-20T10:45:50;40.47;;;14.48;;
56736;SDS011;42618;51.226;4.910;2022-11-20T10:48:24;43.80;;;15.18;;
56736;SDS011;42618;51.226;4.910;2022-11-20T10:50:54;44.47;;;15.77;;
56736;SDS011;42618;51.226;4.910;2022-11-20T10:56:17;48.72;;;17.98;;
56736;SDS011;42618;51.226;4.910;2022-11-20T11:01:19;58.45;;;20.90;;
56736;SDS011;42618;51.226;4.910;2022-11-20T11:03:50;99.40;;;44.60;;
56736;SDS011;42618;51.226;4.910;2022-11-20T11:06:37;63.22;;;22.58;;
56736;SDS011;42618;51.226;4.910;2022-11-20T11:09:16;54.35;;;16.60;;
56736;SDS011;42618;51.226;4.910;2022-11-20T11:11:56;45.83;;;17.33;;
56736;SDS011;42618;51.226;4.910;2022-11-20T11:14:29;50.92;;;17.50;;
56736;SDS011;42618;51.226;4.910;2022-11-20T11:16:56;50.30;;;17.73;;
56736;SDS011;42618;51.226;4.910;2022-11-20T11:21:54;54.78;;;17.15;;
56736;SDS011;42618;51.226;4.910;2022-11-20T11:24:26;53.70;;;17.30;;
56736;SDS011;42618;51.226;4.910;2022-11-20T11:27:14;62.15;;;19.20;;
56736;SDS011;42618;51.226;4.910;2022-11-20T11:29:44;57.63;;;20.02;;
56736;SDS011;42618;51.226;4.910;2022-11-20T11:32:13;48.28;;;17.50;;
56736;SDS011;42618;51.226;4.910;2022-11-20T11:35:04;60.80;;;19.13;;
56736;SDS011;42618;51.226;4.910;2022-11-20T11:37:36;59.90;;;21.52;;
56736;SDS011;42618;51.226;4.910;2022-11-20T11:40:05;58.25;;;19.45;;
56736;SDS011;42618;51.226;4.910;2022-11-20T11:42:51;66.90;;;19.95;;
56736;SDS011;42618;51.226;4.910;2022-11-20T11:45:20;62.63;;;19.52;;
56736;SDS011;42618;51.226;4.910;2022-11-20T11:47:47;58.95;;;18.95;;
56736;SDS011;42618;51.226;4.910;2022-11-20T11:50:17;68.28;;;20.13;;
56736;SDS011;42618;51.226;4.910;2022-11-20T11:55:44;62.20;;;18.85;;
56736;SDS011;42618;51.226;4.910;2022-11-20T11:58:46;60.25;;;18.70;;
56736;SDS011;42618;51.226;4.910;2022-11-20T12:06:53;51.95;;;16.20;;
56736;SDS011;42618;51.226;4.910;2022-11-20T12:09:33;55.10;;;17.63;;
56736;SDS011;42618;51.226;4.910;2022-11-20T12:12:05;58.58;;;18.88;;
56736;SDS011;42618;51.226;4.910;2022-11-20T12:14:38;57.67;;;18.13;;
56736;SDS011;42618;51.226;4.910;2022-11-20T12:17:11;61.53;;;21.88;;
56736;SDS011;42618;51.226;4.910;2022-11-20T12:19:40;53.70;;;19.38;;
56736;SDS011;42618;51.226;4.910;2022-11-20T12:25:18;45.97;;;16.85;;
56736;SDS011;42618;51.226;4.910;2022-11-20T12:30:39;47.10;;;16.90;;
56736;SDS011;42618;51.226;4.910;2022-11-20T12:33:49;48.05;;;16.25;;
56736;SDS011;42618;51.226;4.910;2022-11-20T12:36:58;46.63;;;14.85;;
56736;SDS011;42618;51.226;4.910;2022-11-20T12:39:34;63.60;;;24.08;;
56736;SDS011;42618;51.226;4.910;2022-11-20T12:53:57;47.20;;;16.10;;
56736;SDS011;42618;51.226;4.910;2022-11-20T12:56:42;48.47;;;16.50;;
56736;SDS011;42618;51.226;4.910;2022-11-20T13:02:03;39.67;;;14.02;;
56736;SDS011;42618;51.226;4.910;2022-11-20T13:05:02;42.83;;;16.42;;
56736;SDS011;42618;51.226;4.910;2022-11-20T13:07:42;43.03;;;15.18;;
56736;SDS011;42618;51.226;4.910;2022-11-20T13:10:14;40.22;;;14.32;;
56736;SDS011;42618;51.226;4.910;2022-11-20T13:12:49;41.55;;;14.45;;
56736;SDS011;42618;51.226;4.910;2022-11-20T13:15:38;43.80;;;14.60;;
56736;SDS011;42618;51.226;4.910;2022-11-20T13:18:08;45.70;;;16.80;;
56736;SDS011;42618;51.226;4.910;2022-11-20T13:20:41;38.83;;;15.23;;
56736;SDS011;42618;51.226;4.910;2022-11-20T13:23:22;41.28;;;14.02;;
56736;SDS011;42618;51.226;4.910;2022-11-20T13:25:50;42.63;;;15.32;;
56736;SDS011;42618;51.226;4.910;2022-11-20T13:30:49;52.58;;;15.82;;
56736;SDS011;42618;51.226;4.910;2022-11-20T13:33:33;31.95;;;11.90;;
56736;SDS011;42618;51.226;4.910;2022-11-20T13:36:03;27.42;;;9.00;;
56736;SDS011;42618;51.226;4.910;2022-11-20T13:38:52;27.55;;;10.30;;
56736;SDS011;42618;51.226;4.910;2022-11-20T13:41:25;32.47;;;10.43;;
56736;SDS011;42618;51.226;4.910;2022-11-20T13:43:59;30.35;;;10.88;;
56736;SDS011;42618;51.226;4.910;2022-11-20T13:46:35;31.23;;;10.80;;
56736;SDS011;42618;51.226;4.910;2022-11-20T13:49:32;28.42;;;9.63;;
56736;SDS011;42618;51.226;4.910;2022-11-20T13:54:50;20.38;;;8.48;;
56736;SDS011;42618;51.226;4.910;2022-11-20T14:03:43;13.55;;;4.97;;
56736;SDS011;42618;51.226;4.910;2022-11-20T14:08:59;12.85;;;5.03;;
56736;SDS011;42618;51.226;4.910;2022-11-20T14:11:27;11.80;;;4.20;;
56736;SDS011;42618;51.226;4.910;2022-11-20T14:14:10;11.93;;;3.83;;
56736;SDS011;42618;51.226;4.910;2022-11-20T14:16:41;11.95;;;3.38;;
56736;SDS011;42618;51.226;4.910;2022-11-20T14:19:44;6.63;;;3.58;;
56736;SDS011;42618;51.226;4.910;2022-11-20T14:24:35;15.75;;;4.82;;
56736;SDS011;42618;51.226;4.910;2022-11-20T14:27:03;8.68;;;3.00;;
56736;SDS011;42618;51.226;4.910;2022-11-20T14:32:04;4.57;;;2.42;;
56736;SDS011;42618;51.226;4.910;2022-11-20T14:34:32;10.73;;;3.60;;
56736;SDS011;42618;51.226;4.910;2022-11-20T14:37:04;7.72;;;4.03;;
56736;SDS011;42618;51.226;4.910;2022-11-20T14:39:40;8.05;;;3.65;;
56736;SDS011;42618;51.226;4.910;2022-11-20T14:42:16;10.00;;;3.67;;
56736;SDS011;42618;51.226;4.910;2022-11-20T14:44:45;8.68;;;4.20;;
56736;SDS011;42618;51.226;4.910;2022-11-20T14:47:12;10.20;;;4.95;;
56736;SDS011;42618;51.226;4.910;2022-11-20T14:49:41;9.23;;;4.40;;
56736;SDS011;42618;51.226;4.910;2022-11-20T14:52:11;8.77;;;4.53;;
56736;SDS011;42618;51.226;4.910;2022-11-20T14:54:44;8.32;;;4.13;;
56736;SDS011;42618;51.226;4.910;2022-11-20T14:59:47;5.65;;;2.72;;
56736;SDS011;42618;51.226;4.910;2022-11-20T15:02:14;4.95;;;2.97;;
56736;SDS011;42618;51.226;4.910;2022-11-20T15:04:45;13.05;;;2.92;;
56736;SDS011;42618;51.226;4.910;2022-11-20T15:07:11;6.28;;;3.50;;
56736;SDS011;42618;51.226;4.910;2022-11-20T15:10:03;11.57;;;4.47;;
56736;SDS011;42618;51.226;4.910;2022-11-20T15:12:35;5.22;;;3.25;;
56736;SDS011;42618;51.226;4.910;2022-11-20T15:15:04;8.25;;;2.92;;
56736;SDS011;42618;51.226;4.910;2022-11-20T15:17:40;7.60;;;4.15;;
56736;SDS011;42618;51.226;4.910;2022-11-20T15:20:12;8.73;;;3.83;;
56736;SDS011;42618;51.226;4.910;2022-11-20T15:22:42;6.45;;;3.70;;
56736;SDS011;42618;51.226;4.910;2022-11-20T15:25:12;7.32;;;4.30;;
56736;SDS011;42618;51.226;4.910;2022-11-20T15:27:40;4.28;;;2.08;;
56736;SDS011;42618;51.226;4.910;2022-11-20T15:30:17;8.05;;;3.80;;
56736;SDS011;42618;51.226;4.910;2022-11-20T15:32:45;6.55;;;3.60;;
56736;SDS011;42618;51.226;4.910;2022-11-20T15:35:13;7.18;;;3.47;;
56736;SDS011;42618;51.226;4.910;2022-11-20T15:37:41;6.75;;;3.10;;
56736;SDS011;42618;51.226;4.910;2022-11-20T15:40:08;3.83;;;2.80;;
56736;SDS011;42618;51.226;4.910;2022-11-20T15:42:35;6.70;;;3.90;;
56736;SDS011;42618;51.226;4.910;2022-11-20T15:45:02;4.60;;;2.80;;
56736;SDS011;42618;51.226;4.910;2022-11-20T15:47:32;3.47;;;2.55;;
56736;SDS011;42618;51.226;4.910;2022-11-20T15:50:01;5.35;;;3.22;;
56736;SDS011;42618;51.226;4.910;2022-11-20T15:52:29;7.55;;;3.15;;
56736;SDS011;42618;51.226;4.910;2022-11-20T15:57:35;4.57;;;3.20;;
56736;SDS011;42618;51.226;4.910;2022-11-20T16:00:02;5.30;;;3.10;;
56736;SDS011;42618;51.226;4.910;2022-11-20T16:02:36;6.25;;;3.90;;
56736;SDS011;42618;51.226;4.910;2022-11-20T16:05:02;9.07;;;4.13;;
56736;SDS011;42618;51.226;4.910;2022-11-20T16:09:57;4.80;;;3.88;;
56736;SDS011;42618;51.226;4.910;2022-11-20T16:12:24;16.60;;;12.35;;
56736;SDS011;42618;51.226;4.910;2022-11-20T16:15:22;7.10;;;3.83;;
56736;SDS011;42618;51.226;4.910;2022-11-20T16:18:08;6.00;;;4.80;;
56736;SDS011;42618;51.226;4.910;2022-11-20T16:20:37;5.88;;;4.00;;
56736;SDS011;42618;51.226;4.910;2022-11-20T16:23:04;4.97;;;3.97;;
56736;SDS011;42618;51.226;4.910;2022-11-20T16:25:32;13.45;;;5.25;;
56736;SDS011;42618;51.226;4.910;2022-11-20T16:27:59;12.63;;;7.60;;
56736;SDS011;42618;51.226;4.910;2022-11-20T16:30:25;11.45;;;6.32;;
56736;SDS011;42618;51.226;4.910;2022-11-20T16:32:52;5.18;;;4.00;;
56736;SDS011;42618;51.226;4.910;2022-11-20T16:35:19;9.45;;;3.53;;
56736;SDS011;42618;51.226;4.910;2022-11-20T16:37:45;9.52;;;5.28;;
56736;SDS011;42618;51.226;4.910;2022-11-20T16:40:12;8.52;;;4.65;;
56736;SDS011;42618;51.226;4.910;2022-11-20T16:42:39;9.02;;;4.55;;
56736;SDS011;42618;51.226;4.910;2022-11-20T16:45:05;6.85;;;4.30;;
56736;SDS011;42618;51.226;4.910;2022-11-20T16:47:33;2.85;;;2.33;;
56736;SDS011;42618;51.226;4.910;2022-11-20T16:50:01;5.15;;;3.75;;
56736;SDS011;42618;51.226;4.910;2022-11-20T16:52:29;9.75;;;5.70;;